sensor_id;sensor_type;location;lat;lon;timestamp;P1;durP1;ratioP1;P2;durP2;ratioP2
77226;SDS011;66234;47.642;19.144;2023-05-07T00:02:11;25.93;;;16.50;;
77226;SDS011;66234;47.642;19.144;2023-05-07T00:05:14;25.33;;;16.60;;
77226;SDS011;66234;47.642;19.144;2023-05-07T00:08:17;24.20;;;15.95;;
77226;SDS011;66234;47.642;19.144;2023-05-07T00:11:19;25.60;;;16.05;;
77226;SDS011;66234;47.642;19.144;2023-05-07T00:14:22;24.10;;;15.57;;
77226;SDS011;66234;47.642;19.144;2023-05-07T00:17:25;24.07;;;16.47;;
77226;SDS011;66234;47.642;19.144;2023-05-07T00:20:28;27.33;;;16.27;;
77226;SDS011;66234;47.642;19.144;2023-05-07T00:23:30;25.77;;;16.58;;
77226;SDS011;66234;47.642;19.144;2023-05-07T00:26:33;25.17;;;16.35;;
77226;SDS011;66234;47.642;19.144;2023-05-07T00:29:36;29.03;;;16.77;;
77226;SDS011;66234;47.642;19.144;2023-05-07T00:32:38;26.80;;;16.87;;
77226;SDS011;66234;47.642;19.144;2023-05-07T00:35:41;23.02;;;15.65;;
77226;SDS011;66234;47.642;19.144;2023-05-07T00:38:44;24.15;;;16.52;;
77226;SDS011;66234;47.642;19.144;2023-05-07T00:41:47;24.02;;;15.60;;
77226;SDS011;66234;47.642;19.144;2023-05-07T00:44:50;22.80;;;15.03;;
77226;SDS011;66234;47.642;19.144;2023-05-07T00:47:56;22.77;;;16.03;;
77226;SDS011;66234;47.642;19.144;2023-05-07T00:51:01;24.55;;;16.00;;
77226;SDS011;66234;47.642;19.144;2023-05-07T00:54:04;23.50;;;15.93;;
77226;SDS011;66234;47.642;19.144;2023-05-07T00:57:07;23.48;;;15.93;;
77226;SDS011;66234;47.642;19.144;2023-05-07T01:00:12;24.63;;;15.70;;
77226;SDS011;66234;47.642;19.144;2023-05-07T01:03:16;23.23;;;15.87;;
77226;SDS011;66234;47.642;19.144;2023-05-07T01:06:19;24.88;;;15.93;;
77226;SDS011;66234;47.642;19.144;2023-05-07T01:09:25;20.75;;;15.98;;
77226;SDS011;66234;47.642;19.144;2023-05-07T01:12:28;21.75;;;15.30;;
77226;SDS011;66234;47.642;19.144;2023-05-07T01:15:33;22.60;;;14.97;;
77226;SDS011;66234;47.642;19.144;2023-05-07T01:18:36;24.30;;;16.70;;
77226;SDS011;66234;47.642;19.144;2023-05-07T01:21:39;24.67;;;15.98;;
77226;SDS011;66234;47.642;19.144;2023-05-07T01:24:49;24.55;;;15.50;;
77226;SDS011;66234;47.642;19.144;2023-05-07T01:27:52;25.35;;;15.40;;
77226;SDS011;66234;47.642;19.144;2023-05-07T01:31:00;22.57;;;15.43;;
77226;SDS011;66234;47.642;19.144;2023-05-07T01:34:06;22.83;;;16.13;;
77226;SDS011;66234;47.642;19.144;2023-05-07T01:37:10;21.50;;;14.85;;
77226;SDS011;66234;47.642;19.144;2023-05-07T01:40:13;23.73;;;15.18;;
77226;SDS011;66234;47.642;19.144;2023-05-07T01:43:16;24.77;;;15.65;;
77226;SDS011;66234;47.642;19.144;2023-05-07T01:46:19;22.90;;;15.10;;
77226;SDS011;66234;47.642;19.144;2023-05-07T01:49:22;27.27;;;15.90;;
77226;SDS011;66234;47.642;19.144;2023-05-07T01:52:25;23.02;;;15.77;;
77226;SDS011;66234;47.642;19.144;2023-05-07T01:55:30;27.23;;;16.60;;
77226;SDS011;66234;47.642;19.144;2023-05-07T01:58:33;27.40;;;16.65;;
77226;SDS011;66234;47.642;19.144;2023-05-07T02:01:36;24.07;;;15.23;;
77226;SDS011;66234;47.642;19.144;2023-05-07T02:04:39;23.27;;;15.03;;
77226;SDS011;66234;47.642;19.144;2023-05-07T02:07:42;23.88;;;15.63;;
77226;SDS011;66234;47.642;19.144;2023-05-07T02:10:44;25.77;;;15.90;;
77226;SDS011;66234;47.642;19.144;2023-05-07T02:13:47;23.08;;;15.40;;
77226;SDS011;66234;47.642;19.144;2023-05-07T02:16:49;28.00;;;16.37;;
77226;SDS011;66234;47.642;19.144;2023-05-07T02:19:52;24.03;;;15.53;;
77226;SDS011;66234;47.642;19.144;2023-05-07T02:22:55;23.17;;;15.38;;
77226;SDS011;66234;47.642;19.144;2023-05-07T02:25:59;24.20;;;16.15;;
77226;SDS011;66234;47.642;19.144;2023-05-07T02:29:03;26.67;;;16.73;;
77226;SDS011;66234;47.642;19.144;2023-05-07T02:32:06;22.60;;;14.70;;
77226;SDS011;66234;47.642;19.144;2023-05-07T02:35:09;25.73;;;15.70;;
77226;SDS011;66234;47.642;19.144;2023-05-07T02:38:12;24.90;;;15.98;;
77226;SDS011;66234;47.642;19.144;2023-05-07T02:41:15;24.83;;;15.77;;
77226;SDS011;66234;47.642;19.144;2023-05-07T02:44:18;23.73;;;16.10;;
77226;SDS011;66234;47.642;19.144;2023-05-07T02:47:24;28.07;;;16.87;;
77226;SDS011;66234;47.642;19.144;2023-05-07T02:50:29;25.33;;;16.00;;
77226;SDS011;66234;47.642;19.144;2023-05-07T02:53:32;26.08;;;16.25;;
77226;SDS011;66234;47.642;19.144;2023-05-07T02:56:35;25.63;;;16.48;;
77226;SDS011;66234;47.642;19.144;2023-05-07T02:59:37;26.10;;;16.25;;
77226;SDS011;66234;47.642;19.144;2023-05-07T03:02:40;26.43;;;16.47;;
77226;SDS011;66234;47.642;19.144;2023-05-07T03:05:43;23.63;;;15.80;;
77226;SDS011;66234;47.642;19.144;2023-05-07T03:08:46;26.38;;;16.20;;
77226;SDS011;66234;47.642;19.144;2023-05-07T03:11:49;26.33;;;15.27;;
77226;SDS011;66234;47.642;19.144;2023-05-07T03:14:52;24.27;;;15.88;;
77226;SDS011;66234;47.642;19.144;2023-05-07T03:17:55;26.63;;;16.57;;
77226;SDS011;66234;47.642;19.144;2023-05-07T03:20:58;24.57;;;16.53;;
77226;SDS011;66234;47.642;19.144;2023-05-07T03:24:00;22.70;;;14.82;;
77226;SDS011;66234;47.642;19.144;2023-05-07T03:27:03;25.52;;;16.40;;
77226;SDS011;66234;47.642;19.144;2023-05-07T03:30:05;23.58;;;15.90;;
77226;SDS011;66234;47.642;19.144;2023-05-07T03:33:10;24.70;;;16.33;;
77226;SDS011;66234;47.642;19.144;2023-05-07T03:36:12;24.93;;;15.77;;
77226;SDS011;66234;47.642;19.144;2023-05-07T03:39:15;26.85;;;17.13;;
77226;SDS011;66234;47.642;19.144;2023-05-07T03:42:18;27.20;;;16.88;;
77226;SDS011;66234;47.642;19.144;2023-05-07T03:45:24;27.20;;;17.65;;
77226;SDS011;66234;47.642;19.144;2023-05-07T03:48:34;25.83;;;17.03;;
77226;SDS011;66234;47.642;19.144;2023-05-07T03:51:38;28.63;;;18.30;;
77226;SDS011;66234;47.642;19.144;2023-05-07T03:54:42;28.60;;;18.05;;
77226;SDS011;66234;47.642;19.144;2023-05-07T03:57:47;25.95;;;17.40;;
77226;SDS011;66234;47.642;19.144;2023-05-07T04:00:49;25.77;;;17.02;;
77226;SDS011;66234;47.642;19.144;2023-05-07T04:03:58;28.47;;;17.93;;
77226;SDS011;66234;47.642;19.144;2023-05-07T04:07:01;28.67;;;18.87;;
77226;SDS011;66234;47.642;19.144;2023-05-07T04:10:07;28.35;;;18.80;;
77226;SDS011;66234;47.642;19.144;2023-05-07T04:13:12;27.92;;;17.65;;
77226;SDS011;66234;47.642;19.144;2023-05-07T04:16:16;29.67;;;19.02;;
77226;SDS011;66234;47.642;19.144;2023-05-07T04:19:19;30.97;;;19.90;;
77226;SDS011;66234;47.642;19.144;2023-05-07T04:22:25;30.30;;;18.17;;
77226;SDS011;66234;47.642;19.144;2023-05-07T04:25:28;28.70;;;16.65;;
77226;SDS011;66234;47.642;19.144;2023-05-07T04:28:39;26.95;;;16.88;;
77226;SDS011;66234;47.642;19.144;2023-05-07T04:31:43;25.02;;;15.50;;
77226;SDS011;66234;47.642;19.144;2023-05-07T04:34:47;31.33;;;16.77;;
77226;SDS011;66234;47.642;19.144;2023-05-07T04:37:50;29.67;;;17.67;;
77226;SDS011;66234;47.642;19.144;2023-05-07T04:40:53;23.83;;;15.82;;
77226;SDS011;66234;47.642;19.144;2023-05-07T04:43:58;24.45;;;16.02;;
77226;SDS011;66234;47.642;19.144;2023-05-07T04:47:04;22.08;;;15.15;;
77226;SDS011;66234;47.642;19.144;2023-05-07T04:50:07;24.23;;;15.30;;
77226;SDS011;66234;47.642;19.144;2023-05-07T04:53:11;24.73;;;16.20;;
77226;SDS011;66234;47.642;19.144;2023-05-07T04:56:14;25.23;;;15.82;;
77226;SDS011;66234;47.642;19.144;2023-05-07T04:59:19;25.58;;;15.93;;
77226;SDS011;66234;47.642;19.144;2023-05-07T05:02:22;23.73;;;16.05;;
77226;SDS011;66234;47.642;19.144;2023-05-07T05:05:25;22.50;;;14.97;;
77226;SDS011;66234;47.642;19.144;2023-05-07T05:08:29;23.90;;;14.53;;
77226;SDS011;66234;47.642;19.144;2023-05-07T05:11:34;20.38;;;13.35;;
77226;SDS011;66234;47.642;19.144;2023-05-07T05:14:37;19.70;;;12.57;;
77226;SDS011;66234;47.642;19.144;2023-05-07T05:17:40;18.90;;;12.38;;
77226;SDS011;66234;47.642;19.144;2023-05-07T05:20:42;18.50;;;12.63;;
77226;SDS011;66234;47.642;19.144;2023-05-07T05:23:47;17.27;;;11.93;;
77226;SDS011;66234;47.642;19.144;2023-05-07T05:26:54;17.35;;;12.13;;
77226;SDS011;66234;47.642;19.144;2023-05-07T05:29:56;17.45;;;10.63;;
77226;SDS011;66234;47.642;19.144;2023-05-07T05:32:59;17.42;;;11.45;;
77226;SDS011;66234;47.642;19.144;2023-05-07T05:36:03;17.73;;;10.50;;
77226;SDS011;66234;47.642;19.144;2023-05-07T05:39:07;15.57;;;9.53;;
77226;SDS011;66234;47.642;19.144;2023-05-07T05:42:10;14.40;;;10.10;;
77226;SDS011;66234;47.642;19.144;2023-05-07T05:45:13;15.40;;;10.05;;
77226;SDS011;66234;47.642;19.144;2023-05-07T05:48:17;13.90;;;9.38;;
77226;SDS011;66234;47.642;19.144;2023-05-07T05:51:20;13.73;;;9.30;;
77226;SDS011;66234;47.642;19.144;2023-05-07T05:54:24;16.07;;;10.03;;
77226;SDS011;66234;47.642;19.144;2023-05-07T05:57:27;16.80;;;10.18;;
77226;SDS011;66234;47.642;19.144;2023-05-07T06:00:31;13.35;;;9.30;;
77226;SDS011;66234;47.642;19.144;2023-05-07T06:03:37;14.07;;;9.30;;
77226;SDS011;66234;47.642;19.144;2023-05-07T06:06:46;14.97;;;9.20;;
77226;SDS011;66234;47.642;19.144;2023-05-07T06:09:49;17.87;;;10.43;;
77226;SDS011;66234;47.642;19.144;2023-05-07T06:12:52;16.70;;;10.02;;
77226;SDS011;66234;47.642;19.144;2023-05-07T06:15:55;15.68;;;9.52;;
77226;SDS011;66234;47.642;19.144;2023-05-07T06:18:57;12.57;;;8.68;;
77226;SDS011;66234;47.642;19.144;2023-05-07T06:22:00;15.17;;;8.73;;
77226;SDS011;66234;47.642;19.144;2023-05-07T06:25:06;12.73;;;8.00;;
77226;SDS011;66234;47.642;19.144;2023-05-07T06:28:09;10.23;;;7.45;;
77226;SDS011;66234;47.642;19.144;2023-05-07T06:31:16;10.55;;;7.13;;
77226;SDS011;66234;47.642;19.144;2023-05-07T06:34:31;9.70;;;7.10;;
77226;SDS011;66234;47.642;19.144;2023-05-07T06:37:33;10.70;;;6.37;;
77226;SDS011;66234;47.642;19.144;2023-05-07T06:40:39;13.90;;;7.30;;
77226;SDS011;66234;47.642;19.144;2023-05-07T06:43:42;8.55;;;5.78;;
77226;SDS011;66234;47.642;19.144;2023-05-07T06:47:05;8.52;;;6.03;;
77226;SDS011;66234;47.642;19.144;2023-05-07T06:50:09;7.88;;;5.40;;
77226;SDS011;66234;47.642;19.144;2023-05-07T06:53:13;12.77;;;5.77;;
77226;SDS011;66234;47.642;19.144;2023-05-07T06:56:18;10.13;;;6.17;;
77226;SDS011;66234;47.642;19.144;2023-05-07T06:59:23;8.75;;;5.82;;
77226;SDS011;66234;47.642;19.144;2023-05-07T07:02:27;10.38;;;6.78;;
77226;SDS011;66234;47.642;19.144;2023-05-07T07:05:29;8.85;;;6.15;;
77226;SDS011;66234;47.642;19.144;2023-05-07T07:08:33;7.37;;;5.57;;
77226;SDS011;66234;47.642;19.144;2023-05-07T07:11:37;5.97;;;5.20;;
77226;SDS011;66234;47.642;19.144;2023-05-07T07:14:41;5.47;;;4.13;;
77226;SDS011;66234;47.642;19.144;2023-05-07T07:17:44;5.38;;;3.60;;
77226;SDS011;66234;47.642;19.144;2023-05-07T07:20:47;7.20;;;4.03;;
77226;SDS011;66234;47.642;19.144;2023-05-07T07:23:50;5.53;;;3.87;;
77226;SDS011;66234;47.642;19.144;2023-05-07T07:26:55;4.63;;;3.67;;
77226;SDS011;66234;47.642;19.144;2023-05-07T07:29:59;7.25;;;3.85;;
77226;SDS011;66234;47.642;19.144;2023-05-07T07:33:05;5.32;;;3.40;;
77226;SDS011;66234;47.642;19.144;2023-05-07T07:36:11;3.97;;;2.78;;
77226;SDS011;66234;47.642;19.144;2023-05-07T07:39:13;5.67;;;2.90;;
77226;SDS011;66234;47.642;19.144;2023-05-07T07:42:16;3.63;;;2.90;;
77226;SDS011;66234;47.642;19.144;2023-05-07T07:45:20;3.28;;;2.47;;
77226;SDS011;66234;47.642;19.144;2023-05-07T07:48:25;4.00;;;2.58;;
77226;SDS011;66234;47.642;19.144;2023-05-07T07:51:28;3.35;;;2.35;;
77226;SDS011;66234;47.642;19.144;2023-05-07T07:54:32;3.57;;;1.97;;
77226;SDS011;66234;47.642;19.144;2023-05-07T07:57:35;3.17;;;2.10;;
77226;SDS011;66234;47.642;19.144;2023-05-07T08:00:38;4.53;;;2.30;;
77226;SDS011;66234;47.642;19.144;2023-05-07T08:03:41;2.33;;;1.98;;
77226;SDS011;66234;47.642;19.144;2023-05-07T08:06:44;2.45;;;1.90;;
77226;SDS011;66234;47.642;19.144;2023-05-07T08:09:47;1.93;;;1.47;;
77226;SDS011;66234;47.642;19.144;2023-05-07T08:12:52;2.07;;;1.87;;
77226;SDS011;66234;47.642;19.144;2023-05-07T08:15:55;1.70;;;1.60;;
77226;SDS011;66234;47.642;19.144;2023-05-07T08:18:58;3.10;;;1.73;;
77226;SDS011;66234;47.642;19.144;2023-05-07T08:22:02;2.80;;;1.90;;
77226;SDS011;66234;47.642;19.144;2023-05-07T08:25:06;2.70;;;1.80;;
77226;SDS011;66234;47.642;19.144;2023-05-07T08:28:09;2.20;;;2.00;;
77226;SDS011;66234;47.642;19.144;2023-05-07T08:31:13;1.90;;;1.63;;
77226;SDS011;66234;47.642;19.144;2023-05-07T08:34:19;2.15;;;1.95;;
77226;SDS011;66234;47.642;19.144;2023-05-07T08:37:26;2.60;;;2.00;;
77226;SDS011;66234;47.642;19.144;2023-05-07T08:40:30;2.30;;;2.00;;
77226;SDS011;66234;47.642;19.144;2023-05-07T08:43:41;2.20;;;1.90;;
77226;SDS011;66234;47.642;19.144;2023-05-07T08:46:45;3.20;;;1.90;;
77226;SDS011;66234;47.642;19.144;2023-05-07T08:49:51;2.40;;;2.20;;
77226;SDS011;66234;47.642;19.144;2023-05-07T08:52:57;2.15;;;1.95;;
77226;SDS011;66234;47.642;19.144;2023-05-07T08:56:00;2.40;;;2.20;;
77226;SDS011;66234;47.642;19.144;2023-05-07T08:59:05;2.17;;;1.97;;
77226;SDS011;66234;47.642;19.144;2023-05-07T09:02:07;2.42;;;1.98;;
77226;SDS011;66234;47.642;19.144;2023-05-07T09:05:13;2.30;;;2.10;;
77226;SDS011;66234;47.642;19.144;2023-05-07T09:08:16;1.77;;;1.52;;
77226;SDS011;66234;47.642;19.144;2023-05-07T09:11:21;1.85;;;1.60;;
77226;SDS011;66234;47.642;19.144;2023-05-07T09:14:26;1.90;;;1.70;;
77226;SDS011;66234;47.642;19.144;2023-05-07T09:17:30;2.17;;;1.98;;
77226;SDS011;66234;47.642;19.144;2023-05-07T09:20:33;1.90;;;1.80;;
77226;SDS011;66234;47.642;19.144;2023-05-07T09:23:37;2.13;;;1.77;;
77226;SDS011;66234;47.642;19.144;2023-05-07T09:26:40;2.40;;;2.10;;
77226;SDS011;66234;47.642;19.144;2023-05-07T09:29:44;2.87;;;2.00;;
77226;SDS011;66234;47.642;19.144;2023-05-07T09:32:49;2.17;;;1.75;;
77226;SDS011;66234;47.642;19.144;2023-05-07T09:35:56;2.65;;;2.05;;
77226;SDS011;66234;47.642;19.144;2023-05-07T09:38:59;1.98;;;1.77;;
77226;SDS011;66234;47.642;19.144;2023-05-07T09:42:04;2.42;;;1.95;;
77226;SDS011;66234;47.642;19.144;2023-05-07T09:45:10;2.57;;;1.70;;
77226;SDS011;66234;47.642;19.144;2023-05-07T09:48:15;2.03;;;1.80;;
77226;SDS011;66234;47.642;19.144;2023-05-07T09:51:22;2.60;;;2.10;;
77226;SDS011;66234;47.642;19.144;2023-05-07T09:54:32;2.25;;;2.05;;
77226;SDS011;66234;47.642;19.144;2023-05-07T09:57:37;2.00;;;1.80;;
77226;SDS011;66234;47.642;19.144;2023-05-07T10:00:43;2.83;;;2.63;;
77226;SDS011;66234;47.642;19.144;2023-05-07T10:03:49;3.03;;;2.10;;
77226;SDS011;66234;47.642;19.144;2023-05-07T10:06:54;4.38;;;2.00;;
77226;SDS011;66234;47.642;19.144;2023-05-07T10:09:58;2.20;;;2.00;;
77226;SDS011;66234;47.642;19.144;2023-05-07T10:13:07;2.27;;;2.07;;
77226;SDS011;66234;47.642;19.144;2023-05-07T10:16:16;3.73;;;2.33;;
77226;SDS011;66234;47.642;19.144;2023-05-07T10:19:22;2.28;;;2.08;;
77226;SDS011;66234;47.642;19.144;2023-05-07T10:22:28;3.00;;;2.22;;
77226;SDS011;66234;47.642;19.144;2023-05-07T10:25:36;2.50;;;1.90;;
77226;SDS011;66234;47.642;19.144;2023-05-07T10:28:46;2.40;;;2.20;;
77226;SDS011;66234;47.642;19.144;2023-05-07T10:35:24;3.08;;;2.60;;
77226;SDS011;66234;47.642;19.144;2023-05-07T10:38:32;3.47;;;2.30;;
77226;SDS011;66234;47.642;19.144;2023-05-07T10:41:36;2.83;;;2.00;;
77226;SDS011;66234;47.642;19.144;2023-05-07T10:44:39;4.00;;;2.80;;
77226;SDS011;66234;47.642;19.144;2023-05-07T10:51:31;4.00;;;2.85;;
77226;SDS011;66234;47.642;19.144;2023-05-07T10:55:18;3.55;;;3.00;;
77226;SDS011;66234;47.642;19.144;2023-05-07T10:58:31;3.25;;;2.95;;
77226;SDS011;66234;47.642;19.144;2023-05-07T11:01:55;3.20;;;2.90;;
77226;SDS011;66234;47.642;19.144;2023-05-07T11:05:20;3.20;;;2.93;;
77226;SDS011;66234;47.642;19.144;2023-05-07T11:08:52;3.10;;;2.80;;
77226;SDS011;66234;47.642;19.144;2023-05-07T11:11:57;4.30;;;2.55;;
77226;SDS011;66234;47.642;19.144;2023-05-07T11:15:38;3.47;;;2.83;;
77226;SDS011;66234;47.642;19.144;2023-05-07T11:18:51;3.15;;;2.85;;
77226;SDS011;66234;47.642;19.144;2023-05-07T11:22:02;3.20;;;2.90;;
77226;SDS011;66234;47.642;19.144;2023-05-07T11:25:22;4.93;;;3.42;;
77226;SDS011;66234;47.642;19.144;2023-05-07T11:28:43;4.03;;;3.50;;
77226;SDS011;66234;47.642;19.144;2023-05-07T11:31:52;5.10;;;3.63;;
77226;SDS011;66234;47.642;19.144;2023-05-07T11:34:59;3.33;;;2.97;;
77226;SDS011;66234;47.642;19.144;2023-05-07T11:38:02;3.40;;;2.30;;
77226;SDS011;66234;47.642;19.144;2023-05-07T11:41:07;3.42;;;2.30;;
77226;SDS011;66234;47.642;19.144;2023-05-07T11:44:10;3.35;;;2.58;;
77226;SDS011;66234;47.642;19.144;2023-05-07T11:47:19;3.65;;;2.67;;
77226;SDS011;66234;47.642;19.144;2023-05-07T11:50:22;2.50;;;2.20;;
77226;SDS011;66234;47.642;19.144;2023-05-07T11:53:25;6.63;;;2.77;;
77226;SDS011;66234;47.642;19.144;2023-05-07T11:56:28;3.65;;;3.15;;
77226;SDS011;66234;47.642;19.144;2023-05-07T11:59:38;5.18;;;2.78;;
77226;SDS011;66234;47.642;19.144;2023-05-07T12:02:42;3.70;;;2.50;;
77226;SDS011;66234;47.642;19.144;2023-05-07T12:05:46;5.60;;;2.67;;
77226;SDS011;66234;47.642;19.144;2023-05-07T12:08:49;3.40;;;2.80;;
77226;SDS011;66234;47.642;19.144;2023-05-07T12:11:52;3.58;;;3.28;;
77226;SDS011;66234;47.642;19.144;2023-05-07T12:14:55;4.15;;;3.17;;
77226;SDS011;66234;47.642;19.144;2023-05-07T12:17:57;4.32;;;3.45;;
77226;SDS011;66234;47.642;19.144;2023-05-07T12:21:00;3.22;;;2.92;;
77226;SDS011;66234;47.642;19.144;2023-05-07T12:24:03;3.80;;;3.40;;
77226;SDS011;66234;47.642;19.144;2023-05-07T12:27:06;3.80;;;3.45;;
77226;SDS011;66234;47.642;19.144;2023-05-07T12:30:09;3.88;;;3.10;;
77226;SDS011;66234;47.642;19.144;2023-05-07T12:33:16;3.25;;;2.90;;
77226;SDS011;66234;47.642;19.144;2023-05-07T12:36:20;2.83;;;2.63;;
77226;SDS011;66234;47.642;19.144;2023-05-07T12:39:23;2.57;;;2.37;;
77226;SDS011;66234;47.642;19.144;2023-05-07T12:42:26;3.10;;;2.58;;
77226;SDS011;66234;47.642;19.144;2023-05-07T12:45:28;2.90;;;2.28;;
77226;SDS011;66234;47.642;19.144;2023-05-07T12:48:31;3.08;;;2.50;;
77226;SDS011;66234;47.642;19.144;2023-05-07T12:51:34;3.75;;;2.33;;
77226;SDS011;66234;47.642;19.144;2023-05-07T12:54:37;2.83;;;2.50;;
77226;SDS011;66234;47.642;19.144;2023-05-07T12:57:41;3.83;;;2.47;;
77226;SDS011;66234;47.642;19.144;2023-05-07T13:00:48;3.42;;;3.13;;
77226;SDS011;66234;47.642;19.144;2023-05-07T13:03:52;2.83;;;2.63;;
77226;SDS011;66234;47.642;19.144;2023-05-07T13:06:55;4.72;;;3.38;;
77226;SDS011;66234;47.642;19.144;2023-05-07T13:09:58;3.00;;;2.80;;
77226;SDS011;66234;47.642;19.144;2023-05-07T13:13:00;3.63;;;3.33;;
77226;SDS011;66234;47.642;19.144;2023-05-07T13:16:03;4.05;;;2.90;;
77226;SDS011;66234;47.642;19.144;2023-05-07T13:19:08;3.53;;;3.22;;
77226;SDS011;66234;47.642;19.144;2023-05-07T13:22:10;3.50;;;3.10;;
77226;SDS011;66234;47.642;19.144;2023-05-07T13:25:13;3.57;;;3.10;;
77226;SDS011;66234;47.642;19.144;2023-05-07T13:28:16;3.92;;;3.63;;
77226;SDS011;66234;47.642;19.144;2023-05-07T13:31:19;3.70;;;3.40;;
77226;SDS011;66234;47.642;19.144;2023-05-07T13:34:23;4.75;;;3.28;;
77226;SDS011;66234;47.642;19.144;2023-05-07T13:37:25;4.22;;;3.15;;
77226;SDS011;66234;47.642;19.144;2023-05-07T13:40:28;3.23;;;3.03;;
77226;SDS011;66234;47.642;19.144;2023-05-07T13:43:31;3.20;;;2.90;;
77226;SDS011;66234;47.642;19.144;2023-05-07T13:46:35;3.78;;;3.20;;
77226;SDS011;66234;47.642;19.144;2023-05-07T13:49:38;5.38;;;3.40;;
77226;SDS011;66234;47.642;19.144;2023-05-07T13:52:41;3.50;;;3.20;;
77226;SDS011;66234;47.642;19.144;2023-05-07T13:55:48;4.80;;;3.57;;
77226;SDS011;66234;47.642;19.144;2023-05-07T13:58:50;3.53;;;3.22;;
77226;SDS011;66234;47.642;19.144;2023-05-07T14:02:02;3.38;;;3.17;;
77226;SDS011;66234;47.642;19.144;2023-05-07T14:05:05;3.50;;;3.30;;
77226;SDS011;66234;47.642;19.144;2023-05-07T14:08:07;4.32;;;3.70;;
77226;SDS011;66234;47.642;19.144;2023-05-07T14:11:10;2.90;;;2.70;;
77226;SDS011;66234;47.642;19.144;2023-05-07T14:14:12;3.42;;;3.17;;
77226;SDS011;66234;47.642;19.144;2023-05-07T14:17:18;3.42;;;3.13;;
77226;SDS011;66234;47.642;19.144;2023-05-07T14:20:21;3.13;;;2.80;;
77226;SDS011;66234;47.642;19.144;2023-05-07T14:23:23;2.75;;;2.55;;
77226;SDS011;66234;47.642;19.144;2023-05-07T14:26:28;3.23;;;3.03;;
77226;SDS011;66234;47.642;19.144;2023-05-07T14:29:31;2.83;;;2.63;;
77226;SDS011;66234;47.642;19.144;2023-05-07T14:32:45;3.38;;;2.70;;
77226;SDS011;66234;47.642;19.144;2023-05-07T14:35:47;3.33;;;3.03;;
77226;SDS011;66234;47.642;19.144;2023-05-07T14:38:52;4.43;;;3.28;;
77226;SDS011;66234;47.642;19.144;2023-05-07T14:42:01;4.07;;;3.70;;
77226;SDS011;66234;47.642;19.144;2023-05-07T14:45:04;5.03;;;3.28;;
77226;SDS011;66234;47.642;19.144;2023-05-07T14:48:07;3.58;;;3.28;;
77226;SDS011;66234;47.642;19.144;2023-05-07T14:51:12;4.07;;;3.67;;
77226;SDS011;66234;47.642;19.144;2023-05-07T14:54:15;4.35;;;3.53;;
77226;SDS011;66234;47.642;19.144;2023-05-07T14:57:18;3.17;;;2.87;;
77226;SDS011;66234;47.642;19.144;2023-05-07T15:00:21;6.25;;;3.67;;
77226;SDS011;66234;47.642;19.144;2023-05-07T15:03:24;3.70;;;3.38;;
77226;SDS011;66234;47.642;19.144;2023-05-07T15:06:27;4.65;;;3.78;;
77226;SDS011;66234;47.642;19.144;2023-05-07T15:09:30;5.03;;;3.30;;
77226;SDS011;66234;47.642;19.144;2023-05-07T15:12:32;3.33;;;3.03;;
77226;SDS011;66234;47.642;19.144;2023-05-07T15:15:35;3.28;;;2.97;;
77226;SDS011;66234;47.642;19.144;2023-05-07T15:18:38;4.00;;;3.60;;
77226;SDS011;66234;47.642;19.144;2023-05-07T15:21:40;3.88;;;3.35;;
77226;SDS011;66234;47.642;19.144;2023-05-07T15:24:43;4.13;;;3.45;;
77226;SDS011;66234;47.642;19.144;2023-05-07T15:27:46;3.73;;;3.40;;
77226;SDS011;66234;47.642;19.144;2023-05-07T15:30:49;3.53;;;3.22;;
77226;SDS011;66234;47.642;19.144;2023-05-07T15:33:52;3.95;;;3.53;;
77226;SDS011;66234;47.642;19.144;2023-05-07T15:36:55;3.70;;;3.03;;
77226;SDS011;66234;47.642;19.144;2023-05-07T15:39:59;3.88;;;3.47;;
77226;SDS011;66234;47.642;19.144;2023-05-07T15:43:04;3.77;;;3.40;;
77226;SDS011;66234;47.642;19.144;2023-05-07T15:46:06;4.05;;;3.63;;
77226;SDS011;66234;47.642;19.144;2023-05-07T15:49:09;4.15;;;3.38;;
77226;SDS011;66234;47.642;19.144;2023-05-07T15:52:12;4.70;;;3.33;;
77226;SDS011;66234;47.642;19.144;2023-05-07T15:55:18;6.13;;;3.45;;
77226;SDS011;66234;47.642;19.144;2023-05-07T15:58:21;4.20;;;3.40;;
77226;SDS011;66234;47.642;19.144;2023-05-07T16:01:24;4.22;;;2.88;;
77226;SDS011;66234;47.642;19.144;2023-05-07T16:04:27;4.45;;;3.05;;
77226;SDS011;66234;47.642;19.144;2023-05-07T16:07:29;3.25;;;2.95;;
77226;SDS011;66234;47.642;19.144;2023-05-07T16:10:32;4.80;;;2.60;;
77226;SDS011;66234;47.642;19.144;2023-05-07T16:13:35;3.43;;;2.90;;
77226;SDS011;66234;47.642;19.144;2023-05-07T16:16:40;3.70;;;2.70;;
77226;SDS011;66234;47.642;19.144;2023-05-07T16:19:43;2.85;;;2.65;;
77226;SDS011;66234;47.642;19.144;2023-05-07T16:22:46;3.10;;;2.40;;
77226;SDS011;66234;47.642;19.144;2023-05-07T16:25:49;4.68;;;3.03;;
77226;SDS011;66234;47.642;19.144;2023-05-07T16:28:51;3.30;;;2.87;;
77226;SDS011;66234;47.642;19.144;2023-05-07T16:31:56;3.75;;;2.60;;
77226;SDS011;66234;47.642;19.144;2023-05-07T16:34:59;3.25;;;2.78;;
77226;SDS011;66234;47.642;19.144;2023-05-07T16:38:02;3.38;;;2.30;;
77226;SDS011;66234;47.642;19.144;2023-05-07T16:41:11;2.97;;;2.25;;
77226;SDS011;66234;47.642;19.144;2023-05-07T16:44:14;3.00;;;2.10;;
77226;SDS011;66234;47.642;19.144;2023-05-07T16:47:17;2.65;;;2.05;;
77226;SDS011;66234;47.642;19.144;2023-05-07T16:50:20;4.43;;;2.38;;
77226;SDS011;66234;47.642;19.144;2023-05-07T16:53:22;4.18;;;1.80;;
77226;SDS011;66234;47.642;19.144;2023-05-07T16:56:25;3.23;;;2.10;;
77226;SDS011;66234;47.642;19.144;2023-05-07T16:59:29;4.20;;;1.63;;
77226;SDS011;66234;47.642;19.144;2023-05-07T17:02:34;1.88;;;1.70;;
77226;SDS011;66234;47.642;19.144;2023-05-07T17:05:37;2.13;;;1.88;;
77226;SDS011;66234;47.642;19.144;2023-05-07T17:08:40;2.22;;;1.80;;
77226;SDS011;66234;47.642;19.144;2023-05-07T17:11:44;2.20;;;1.60;;
77226;SDS011;66234;47.642;19.144;2023-05-07T17:14:46;2.67;;;1.50;;
77226;SDS011;66234;47.642;19.144;2023-05-07T17:17:49;2.15;;;1.77;;
77226;SDS011;66234;47.642;19.144;2023-05-07T17:20:52;2.58;;;1.65;;
77226;SDS011;66234;47.642;19.144;2023-05-07T17:23:54;2.58;;;1.70;;
77226;SDS011;66234;47.642;19.144;2023-05-07T17:26:57;2.63;;;1.70;;
77226;SDS011;66234;47.642;19.144;2023-05-07T17:29:59;2.37;;;1.87;;
77226;SDS011;66234;47.642;19.144;2023-05-07T17:33:02;2.25;;;1.83;;
77226;SDS011;66234;47.642;19.144;2023-05-07T17:36:21;3.63;;;1.92;;
77226;SDS011;66234;47.642;19.144;2023-05-07T17:39:24;1.88;;;1.45;;
77226;SDS011;66234;47.642;19.144;2023-05-07T17:42:26;2.77;;;1.60;;
77226;SDS011;66234;47.642;19.144;2023-05-07T17:45:30;1.87;;;1.40;;
77226;SDS011;66234;47.642;19.144;2023-05-07T17:48:34;4.03;;;1.60;;
77226;SDS011;66234;47.642;19.144;2023-05-07T17:51:36;2.00;;;1.40;;
77226;SDS011;66234;47.642;19.144;2023-05-07T17:54:54;5.22;;;1.60;;
77226;SDS011;66234;47.642;19.144;2023-05-07T17:57:57;2.00;;;1.80;;
77226;SDS011;66234;47.642;19.144;2023-05-07T18:01:00;2.30;;;1.60;;
77226;SDS011;66234;47.642;19.144;2023-05-07T18:04:03;3.65;;;2.00;;
77226;SDS011;66234;47.642;19.144;2023-05-07T18:07:06;3.10;;;1.88;;
77226;SDS011;66234;47.642;19.144;2023-05-07T18:10:09;3.42;;;1.70;;
77226;SDS011;66234;47.642;19.144;2023-05-07T18:13:12;3.27;;;2.23;;